Date,TemperatureHighF,TemperatureAvgF,TemperatureLowF,DewpointHighF,DewpointAvgF,DewpointLowF,HumidityHigh,HumidityAvg,HumidityLow,PressureMaxIn,PressureMinIn,WindSpeedMaxMPH,WindSpeedAvgMPH,GustSpeedMaxMPH,PrecipitationSumIn
2013-1-1,37.0,31.4,21.0,27.0,15.3,-1.0,86,56,23,0.00,40.00,9,4,28,0.00
2013-1-2,31.0,22.4,13.0,8.0,0.9,-9.0,68,41,21,0.00,40.00,15,4,27,0.00
2013-1-3,25.0,15.5,6.0,6.0,-12.9,-26.0,59,29,9,0.00,40.00,10,4,23,0.00
2013-1-4,38.0,27.4,15.0,21.0,11.8,3.0,79,55,23,0.00,40.00,10,3,18,0.00
2013-1-5,42.0,31.3,24.0,18.0,13.2,1.0,73,50,19,0.00,40.00,9,2,21,0.00
2013-1-6,41.0,33.4,24.0,33.0,27.1,16.0,94,79,55,0.00,40.00,5,1,13,0.00
2013-1-7,40.0,32.7,25.0,31.0,19.5,5.0,94,66,23,0.00,40.00,15,3,20,0.00
2013-1-8,46.0,35.6,22.0,31.0,21.7,16.0,94,63,29,0.00,40.00,6,2,16,0.00
2013-1-9,45.0,35.6,25.0,39.0,29.5,23.0,96,79,54,0.00,40.00,16,2,16,0.00
2013-1-10,47.0,40.0,30.0,29.0,13.2,2.0,67,37,16,0.00,40.00,14,5,25,0.00
2013-1-11,40.0,33.2,26.0,36.0,24.8,16.0,93,72,51,0.00,40.00,5,2,10,0.00
2013-1-12,45.0,41.8,38.0,45.0,41.6,37.0,100,99,93,0.00,40.00,6,2,9,0.00
2013-1-13,52.0,45.1,42.0,52.0,45.1,41.0,100,100,93,0.00,40.00,3,1,10,0.00
2013-1-16,35.0,33.7,33.0,35.0,33.7,33.0,100,100,99,0.00,40.00,9,2,14,0.00
2013-1-17,36.0,32.6,31.0,36.0,32.5,29.0,100,100,93,0.00,40.00,5,2,8,0.00
2013-1-18,29.0,22.7,16.0,1.0,-20.4,-36.0,49,17,6,0.00,40.00,17,7,30,0.00
2013-1-19,47.0,34.2,16.0,31.0,15.1,0.0,71,46,26,0.00,40.00,7,3,22,0.00
2013-1-20,55.0,44.0,30.0,33.0,14.9,-10.0,68,35,13,0.00,40.00,10,5,25,0.00
2013-1-21,30.0,26.4,22.0,23.0,-5.7,-17.0,94,30,13,0.00,40.00,9,4,20,0.00
2013-1-22,24.0,21.0,13.0,23.0,-0.2,-26.0,95,50,10,0.00,40.00,10,4,23,0.00
2013-1-23,16.0,11.6,6.0,-5.0,-20.7,-28.0,48,23,13,0.00,40.00,12,5,24,0.00
2013-1-24,19.0,9.8,2.0,-16.0,-25.1,-37.0,43,21,6,0.00,40.00,16,5,29,0.00
2013-1-25,25.0,15.9,6.0,7.0,-24.7,-40.0,59,17,4,0.00,40.00,9,4,17,0.00
2013-1-26,24.0,17.4,10.0,11.0,-6.9,-33.0,83,43,8,0.00,40.00,13,6,23,0.00
2013-1-27,15.0,13.0,11.0,-6.0,-10.4,-17.0,45,34,22,0.00,40.00,6,3,13,0.00
2013-1-28,33.0,28.8,26.0,27.0,5.9,-19.0,95,52,10,0.00,40.00,3,2,9,0.00
2013-2-18,26.0,23.1,22.0,-7.0,-10.0,-18.0,26,23,13,0.00,40.00,2,2,8,0.00
2013-2-19,48.0,35.8,19.0,44.0,17.5,-15.0,100,52,19,0.00,40.00,7,2,18,0.00
2013-2-20,38.0,31.1,26.0,38.0,-3.2,-10.0,100,24,15,0.00,40.00,9,6,25,0.00
2013-2-21,34.0,28.3,25.0,8.0,-0.5,-8.0,45,30,16,0.00,40.00,17,8,30,0.00
2013-2-22,41.0,31.8,27.0,21.0,11.1,5.0,63,42,37,0.00,40.00,12,9,15,0.00
2013-2-23,38.0,34.7,33.0,33.0,27.7,24.0,99,76,56,0.00,40.00,7,3,16,0.00
2013-2-24,40.0,34.2,31.0,40.0,34.1,30.0,100,100,93,0.00,40.00,12,8,24,0.00
2013-2-25,40.0,31.7,29.0,33.0,29.2,18.0,100,93,41,0.00,40.00,8,4,15,0.00
2013-2-26,46.0,35.8,28.0,32.0,24.8,7.0,97,68,20,0.00,40.00,7,2,12,0.00
2013-2-27,43.0,41.0,38.0,43.0,40.5,34.0,100,98,79,0.00,40.00,12,5,24,0.00
2013-3-11,44.0,42.1,42.0,42.0,41.6,41.0,100,98,92,0.00,40.00,5,3,13,0.00
2013-3-12,56.0,48.3,40.0,54.0,47.9,39.0,100,99,87,0.00,40.00,12,5,22,0.00
2013-3-13,53.0,43.5,31.0,52.0,28.3,-6.0,100,66,12,0.00,40.00,13,4,20,0.00
2013-3-14,38.0,32.3,28.0,27.0,8.9,-27.0,88,48,5,0.00,40.00,9,3,18,0.00
2013-3-15,41.0,33.4,22.0,21.0,2.5,-26.0,61,32,5,0.00,40.00,7,4,15,0.00
2013-3-16,40.0,33.9,29.0,22.0,0.2,-53.0,63,34,1,0.00,40.00,6,2,10,0.00
2013-3-17,39.0,31.9,24.0,18.0,-17.3,-57.0,70,22,1,0.00,40.00,14,4,22,0.00
2013-3-18,40.0,27.6,21.0,4.0,-29.3,-54.0,29,8,1,0.00,40.00,8,4,16,0.00
2013-3-19,37.0,32.6,30.0,37.0,32.6,30.0,100,100,93,0.00,40.00,13,6,20,0.00
2013-3-20,41.0,32.4,26.0,32.0,9.8,-12.0,100,48,10,0.00,40.00,10,4,23,0.00
2013-3-21,37.0,30.5,25.0,30.0,18.2,2.0,100,66,24,0.00,40.00,8,2,14,0.00
2013-3-22,43.0,33.3,26.0,30.0,10.3,-22.0,100,54,6,0.00,40.00,10,3,20,0.00
2013-3-23,38.0,31.3,28.0,19.0,8.6,-4.0,65,40,16,0.00,40.00,9,3,22,0.00
2013-3-24,33.0,33.0,33.0,3.0,3.0,3.0,28,28,28,0.00,40.00,5,5,10,0.00
2013-3-25,45.0,42.1,31.0,24.0,13.3,2.0,75,34,16,0.00,40.00,9,6,22,0.00
2013-3-26,48.0,39.9,33.0,33.0,12.0,-14.0,94,43,7,0.00,40.00,12,5,20,0.00
2013-3-27,53.0,38.1,27.0,22.0,6.9,-27.0,71,39,3,0.00,40.00,12,4,20,0.00
2013-3-28,48.0,42.1,38.0,36.0,23.0,-1.0,95,55,13,0.00,40.00,12,5,21,0.00
2013-3-29,58.0,44.6,31.0,39.0,17.2,-18.0,89,47,4,0.00,40.00,12,3,20,0.00
2013-3-30,55.0,42.7,38.0,25.0,18.4,-37.0,59,40,15,0.00,40.00,8,4,16,0.00
2013-3-31,59.0,55.0,47.0,34.0,-14.4,-42.0,60,18,1,0.00,40.00,13,5,21,0.00
2013-4-1,60.0,48.0,38.0,52.0,32.1,-14.0,99,63,10,0.00,40.00,12,7,23,0.00
2013-4-2,44.0,34.4,28.0,5.0,-16.5,-53.0,37,14,1,0.00,40.00,16,4,27,0.00
2013-4-3,47.0,36.0,30.0,-2.0,-20.9,-52.0,24,10,1,0.00,40.00,15,5,25,0.00
2013-4-4,54.0,39.0,28.0,24.0,-5.8,-37.0,55,20,3,0.00,40.00,10,4,17,0.00
2013-4-5,59.0,42.6,38.0,27.0,17.8,-35.0,64,45,10,0.00,40.00,12,2,23,0.00
2013-4-6,35.0,34.5,34.0,7.0,-5.0,-17.0,30,20,10,0.00,40.00,12,8,18,0.00
2013-4-7,52.0,49.0,27.0,33.0,11.1,-4.0,59,25,10,0.00,40.00,10,6,22,0.00
2013-4-8,47.0,46.0,45.0,42.0,41.5,41.0,88,84,79,0.00,40.00,5,3,10,0.00
2013-4-17,68.0,68.0,68.0,-99.9,-99.9,-99.9,0,0,100,0.00,40.00,8,5,12,0.00
2013-4-25,65.0,64.3,63.0,-99.9,-99.9,-99.9,0,0,100,0.00,40.00,7,5,15,0.00
2013-5-16,84.0,43.3,79.0,-99.9,-99.9,-99.9,22,5,2,0.00,40.00,18,8,20,0.00
2013-5-17,67.0,33.5,67.0,-99.9,-99.9,-99.9,11,9,7,0.00,40.00,10,10,15,0.00
2013-5-27,73.0,59.5,53.0,40.0,-1.4,-99.9,63,38,42,0.00,40.00,13,3,16,0.00
2013-5-28,77.0,60.9,42.0,52.0,25.4,-31.0,91,42,1,0.00,40.00,7,2,12,0.00
2013-5-29,61.0,61.0,61.0,52.0,51.5,51.0,74,72,70,0.00,40.00,2,2,7,0.00
2013-6-2,86.0,73.6,65.0,60.0,55.2,44.0,81,56,25,0.00,40.00,12,4,24,0.00
2013-6-3,71.0,67.1,64.0,71.0,63.4,58.0,100,88,75,0.00,40.00,12,3,14,0.00